sensor_id;sensor_type;location;lat;lon;timestamp;temperature;humidity
25512;DHT22;13414;44.534;18.700;2022-11-13T00:02:41;4.80;99.90
25512;DHT22;13414;44.534;18.700;2022-11-13T00:05:27;4.70;99.90
25512;DHT22;13414;44.534;18.700;2022-11-13T00:08:12;4.70;99.90
25512;DHT22;13414;44.534;18.700;2022-11-13T00:10:59;4.80;99.90
25512;DHT22;13414;44.534;18.700;2022-11-13T00:13:46;4.80;99.90
25512;DHT22;13414;44.534;18.700;2022-11-13T00:16:32;4.70;99.90
25512;DHT22;13414;44.534;18.700;2022-11-13T00:19:18;4.70;99.90
25512;DHT22;13414;44.534;18.700;2022-11-13T00:22:03;4.70;99.90
25512;DHT22;13414;44.534;18.700;2022-11-13T00:24:49;4.70;99.90
25512;DHT22;13414;44.534;18.700;2022-11-13T00:27:34;4.80;99.90
25512;DHT22;13414;44.534;18.700;2022-11-13T00:30:21;4.80;99.90
25512;DHT22;13414;44.534;18.700;2022-11-13T00:33:07;4.90;99.90
25512;DHT22;13414;44.534;18.700;2022-11-13T00:35:53;4.80;99.90
25512;DHT22;13414;44.534;18.700;2022-11-13T00:38:38;4.80;99.90
25512;DHT22;13414;44.534;18.700;2022-11-13T00:41:24;4.70;99.90
25512;DHT22;13414;44.534;18.700;2022-11-13T00:44:10;4.80;99.90
25512;DHT22;13414;44.534;18.700;2022-11-13T00:46:57;4.70;99.90
25512;DHT22;13414;44.534;18.700;2022-11-13T00:49:43;4.70;99.90
25512;DHT22;13414;44.534;18.700;2022-11-13T00:52:28;4.70;99.90
25512;DHT22;13414;44.534;18.700;2022-11-13T00:55:14;4.60;99.90
25512;DHT22;13414;44.534;18.700;2022-11-13T00:57:59;4.60;99.90
25512;DHT22;13414;44.534;18.700;2022-11-13T01:00:46;4.60;99.90
25512;DHT22;13414;44.534;18.700;2022-11-13T01:03:33;4.50;99.90
25512;DHT22;13414;44.534;18.700;2022-11-13T01:06:20;4.50;99.90
25512;DHT22;13414;44.534;18.700;2022-11-13T01:09:06;4.50;99.90
25512;DHT22;13414;44.534;18.700;2022-11-13T01:11:51;4.40;99.90
25512;DHT22;13414;44.534;18.700;2022-11-13T01:14:37;4.30;99.90
25512;DHT22;13414;44.534;18.700;2022-11-13T01:17:22;4.20;99.90
25512;DHT22;13414;44.534;18.700;2022-11-13T01:20:10;4.20;99.90
25512;DHT22;13414;44.534;18.700;2022-11-13T01:22:56;4.30;99.90
25512;DHT22;13414;44.534;18.700;2022-11-13T01:25:41;4.30;99.90
25512;DHT22;13414;44.534;18.700;2022-11-13T01:28:27;4.20;99.90
25512;DHT22;13414;44.534;18.700;2022-11-13T01:31:13;4.20;99.90
25512;DHT22;13414;44.534;18.700;2022-11-13T01:33:59;4.20;99.90
25512;DHT22;13414;44.534;18.700;2022-11-13T01:36:46;4.20;99.90
25512;DHT22;13414;44.534;18.700;2022-11-13T01:39:32;4.10;99.90
25512;DHT22;13414;44.534;18.700;2022-11-13T01:42:18;4.10;99.90
25512;DHT22;13414;44.534;18.700;2022-11-13T01:48:06;4.10;99.90
25512;DHT22;13414;44.534;18.700;2022-11-13T01:50:53;4.10;99.90
25512;DHT22;13414;44.534;18.700;2022-11-13T01:53:40;4.00;99.90
25512;DHT22;13414;44.534;18.700;2022-11-13T01:56:26;3.90;99.90
25512;DHT22;13414;44.534;18.700;2022-11-13T01:59:14;3.90;99.90
25512;DHT22;13414;44.534;18.700;2022-11-13T02:02:00;3.90;99.90
25512;DHT22;13414;44.534;18.700;2022-11-13T02:04:46;3.90;99.90
25512;DHT22;13414;44.534;18.700;2022-11-13T02:07:31;3.90;99.90
25512;DHT22;13414;44.534;18.700;2022-11-13T02:10:19;3.80;99.90
25512;DHT22;13414;44.534;18.700;2022-11-13T02:13:05;3.80;99.90
25512;DHT22;13414;44.534;18.700;2022-11-13T02:15:51;3.80;99.90
25512;DHT22;13414;44.534;18.700;2022-11-13T02:18:37;3.80;99.90
25512;DHT22;13414;44.534;18.700;2022-11-13T02:21:26;3.80;99.90
25512;DHT22;13414;44.534;18.700;2022-11-13T02:24:23;3.80;99.90
25512;DHT22;13414;44.534;18.700;2022-11-13T02:27:10;3.80;99.90
25512;DHT22;13414;44.534;18.700;2022-11-13T02:30:09;3.80;99.90
25512;DHT22;13414;44.534;18.700;2022-11-13T02:32:55;3.90;99.90
25512;DHT22;13414;44.534;18.700;2022-11-13T02:35:42;3.90;99.90
25512;DHT22;13414;44.534;18.700;2022-11-13T02:38:27;3.80;99.90
25512;DHT22;13414;44.534;18.700;2022-11-13T02:41:15;3.80;99.90
25512;DHT22;13414;44.534;18.700;2022-11-13T02:44:00;3.70;99.90
25512;DHT22;13414;44.534;18.700;2022-11-13T02:46:46;3.70;99.90
25512;DHT22;13414;44.534;18.700;2022-11-13T02:49:32;3.60;99.90
25512;DHT22;13414;44.534;18.700;2022-11-13T02:52:17;3.60;99.90
25512;DHT22;13414;44.534;18.700;2022-11-13T02:55:03;3.60;99.90
25512;DHT22;13414;44.534;18.700;2022-11-13T02:57:50;3.60;99.90
25512;DHT22;13414;44.534;18.700;2022-11-13T03:00:36;3.60;99.90
25512;DHT22;13414;44.534;18.700;2022-11-13T03:03:22;3.60;99.90
25512;DHT22;13414;44.534;18.700;2022-11-13T03:06:07;3.50;99.90
25512;DHT22;13414;44.534;18.700;2022-11-13T03:08:53;3.50;99.90
25512;DHT22;13414;44.534;18.700;2022-11-13T03:11:38;3.50;99.90
25512;DHT22;13414;44.534;18.700;2022-11-13T03:14:26;3.50;99.90
25512;DHT22;13414;44.534;18.700;2022-11-13T03:17:11;3.50;99.90
25512;DHT22;13414;44.534;18.700;2022-11-13T03:19:57;3.50;99.90
25512;DHT22;13414;44.534;18.700;2022-11-13T03:22:42;3.50;99.90
25512;DHT22;13414;44.534;18.700;2022-11-13T03:25:28;3.40;99.90
25512;DHT22;13414;44.534;18.700;2022-11-13T03:28:13;3.50;99.90
25512;DHT22;13414;44.534;18.700;2022-11-13T03:31:01;3.50;99.90
25512;DHT22;13414;44.534;18.700;2022-11-13T03:33:47;3.40;99.90
25512;DHT22;13414;44.534;18.700;2022-11-13T03:36:32;3.40;99.90
25512;DHT22;13414;44.534;18.700;2022-11-13T03:39:18;3.50;99.90
25512;DHT22;13414;44.534;18.700;2022-11-13T03:42:03;3.40;99.90
25512;DHT22;13414;44.534;18.700;2022-11-13T03:44:49;3.40;99.90
25512;DHT22;13414;44.534;18.700;2022-11-13T03:47:36;3.40;99.90
25512;DHT22;13414;44.534;18.700;2022-11-13T03:50:22;3.30;99.90
25512;DHT22;13414;44.534;18.700;2022-11-13T03:53:07;3.30;99.90
25512;DHT22;13414;44.534;18.700;2022-11-13T03:55:53;3.30;99.90
25512;DHT22;13414;44.534;18.700;2022-11-13T03:58:39;3.30;99.90
25512;DHT22;13414;44.534;18.700;2022-11-13T04:01:25;3.20;99.90
25512;DHT22;13414;44.534;18.700;2022-11-13T04:04:12;3.20;99.90
25512;DHT22;13414;44.534;18.700;2022-11-13T04:06:58;3.10;99.90
25512;DHT22;13414;44.534;18.700;2022-11-13T04:09:44;3.10;99.90
25512;DHT22;13414;44.534;18.700;2022-11-13T04:12:30;3.00;99.90
25512;DHT22;13414;44.534;18.700;2022-11-13T04:15:15;2.90;99.90
25512;DHT22;13414;44.534;18.700;2022-11-13T04:18:01;2.90;99.90
25512;DHT22;13414;44.534;18.700;2022-11-13T04:20:48;2.90;99.90
25512;DHT22;13414;44.534;18.700;2022-11-13T04:23:34;2.90;99.90
25512;DHT22;13414;44.534;18.700;2022-11-13T04:26:19;3.00;99.90
25512;DHT22;13414;44.534;18.700;2022-11-13T04:29:05;3.00;99.90
25512;DHT22;13414;44.534;18.700;2022-11-13T04:31:50;3.10;99.90
25512;DHT22;13414;44.534;18.700;2022-11-13T04:34:36;3.10;99.90
25512;DHT22;13414;44.534;18.700;2022-11-13T04:37:23;3.20;99.90
25512;DHT22;13414;44.534;18.700;2022-11-13T04:40:09;3.20;99.90
25512;DHT22;13414;44.534;18.700;2022-11-13T04:42:55;3.20;99.90
25512;DHT22;13414;44.534;18.700;2022-11-13T04:45:40;3.20;99.90
25512;DHT22;13414;44.534;18.700;2022-11-13T04:48:25;3.10;99.90
25512;DHT22;13414;44.534;18.700;2022-11-13T04:51:11;3.10;99.90
25512;DHT22;13414;44.534;18.700;2022-11-13T04:53:58;3.10;99.90
25512;DHT22;13414;44.534;18.700;2022-11-13T04:56:44;3.00;99.90
25512;DHT22;13414;44.534;18.700;2022-11-13T04:59:30;3.00;99.90
25512;DHT22;13414;44.534;18.700;2022-11-13T05:02:15;3.10;99.90
25512;DHT22;13414;44.534;18.700;2022-11-13T05:05:01;3.20;99.90
25512;DHT22;13414;44.534;18.700;2022-11-13T05:07:47;3.20;99.90
25512;DHT22;13414;44.534;18.700;2022-11-13T05:10:33;3.10;99.90
25512;DHT22;13414;44.534;18.700;2022-11-13T05:13:19;3.10;99.90
25512;DHT22;13414;44.534;18.700;2022-11-13T05:16:05;3.10;99.90
25512;DHT22;13414;44.534;18.700;2022-11-13T05:18:51;3.10;99.90
25512;DHT22;13414;44.534;18.700;2022-11-13T05:21:37;3.10;99.90
25512;DHT22;13414;44.534;18.700;2022-11-13T05:24:23;3.10;99.90
25512;DHT22;13414;44.534;18.700;2022-11-13T05:27:10;3.10;99.90
25512;DHT22;13414;44.534;18.700;2022-11-13T05:29:56;3.10;99.90
25512;DHT22;13414;44.534;18.700;2022-11-13T05:32:42;3.10;99.90
25512;DHT22;13414;44.534;18.700;2022-11-13T05:35:27;3.10;99.90
25512;DHT22;13414;44.534;18.700;2022-11-13T05:38:13;3.10;99.90
25512;DHT22;13414;44.534;18.700;2022-11-13T05:41:02;3.10;99.90
25512;DHT22;13414;44.534;18.700;2022-11-13T05:43:49;3.10;99.90
25512;DHT22;13414;44.534;18.700;2022-11-13T05:46:35;3.10;99.90
25512;DHT22;13414;44.534;18.700;2022-11-13T05:49:21;3.20;99.90
25512;DHT22;13414;44.534;18.700;2022-11-13T05:52:06;3.30;99.90
25512;DHT22;13414;44.534;18.700;2022-11-13T05:54:51;3.30;99.90
25512;DHT22;13414;44.534;18.700;2022-11-13T05:57:37;3.30;99.90
25512;DHT22;13414;44.534;18.700;2022-11-13T06:00:24;3.30;99.90
25512;DHT22;13414;44.534;18.700;2022-11-13T06:03:10;3.30;99.90
25512;DHT22;13414;44.534;18.700;2022-11-13T06:05:56;3.30;99.90
25512;DHT22;13414;44.534;18.700;2022-11-13T06:08:42;3.30;99.90
25512;DHT22;13414;44.534;18.700;2022-11-13T06:11:29;3.30;99.90
25512;DHT22;13414;44.534;18.700;2022-11-13T06:14:15;3.30;99.90
25512;DHT22;13414;44.534;18.700;2022-11-13T06:17:02;3.30;99.90
25512;DHT22;13414;44.534;18.700;2022-11-13T06:19:48;3.30;99.90
25512;DHT22;13414;44.534;18.700;2022-11-13T06:22:34;3.40;99.90
25512;DHT22;13414;44.534;18.700;2022-11-13T06:25:19;3.60;99.90
25512;DHT22;13414;44.534;18.700;2022-11-13T06:28:05;3.70;99.90
25512;DHT22;13414;44.534;18.700;2022-11-13T06:30:50;3.90;99.90
25512;DHT22;13414;44.534;18.700;2022-11-13T06:33:37;4.00;99.90
25512;DHT22;13414;44.534;18.700;2022-11-13T06:36:24;4.20;99.90
25512;DHT22;13414;44.534;18.700;2022-11-13T06:39:10;4.40;99.90
25512;DHT22;13414;44.534;18.700;2022-11-13T06:41:56;4.40;99.90
25512;DHT22;13414;44.534;18.700;2022-11-13T06:44:41;4.40;99.90
25512;DHT22;13414;44.534;18.700;2022-11-13T06:47:27;4.40;99.90
25512;DHT22;13414;44.534;18.700;2022-11-13T06:50:14;4.40;99.90
25512;DHT22;13414;44.534;18.700;2022-11-13T06:53:00;4.40;99.90
25512;DHT22;13414;44.534;18.700;2022-11-13T06:55:46;4.60;99.90
25512;DHT22;13414;44.534;18.700;2022-11-13T06:58:32;4.70;99.90
25512;DHT22;13414;44.534;18.700;2022-11-13T07:01:19;4.80;99.90
25512;DHT22;13414;44.534;18.700;2022-11-13T07:04:05;4.80;99.90
25512;DHT22;13414;44.534;18.700;2022-11-13T07:06:52;5.20;99.90
25512;DHT22;13414;44.534;18.700;2022-11-13T07:09:38;5.60;99.90
25512;DHT22;13414;44.534;18.700;2022-11-13T07:12:23;5.80;99.90
25512;DHT22;13414;44.534;18.700;2022-11-13T07:15:09;6.20;99.90
25512;DHT22;13414;44.534;18.700;2022-11-13T07:17:55;6.30;99.90
25512;DHT22;13414;44.534;18.700;2022-11-13T07:20:44;6.40;99.90
25512;DHT22;13414;44.534;18.700;2022-11-13T07:23:31;6.50;99.90
25512;DHT22;13414;44.534;18.700;2022-11-13T07:26:17;6.60;99.90
25512;DHT22;13414;44.534;18.700;2022-11-13T07:29:03;6.90;99.90
25512;DHT22;13414;44.534;18.700;2022-11-13T07:31:49;6.80;99.90
25512;DHT22;13414;44.534;18.700;2022-11-13T07:34:34;6.70;99.90
25512;DHT22;13414;44.534;18.700;2022-11-13T07:37:20;6.70;99.90
25512;DHT22;13414;44.534;18.700;2022-11-13T07:40:07;6.70;99.90
25512;DHT22;13414;44.534;18.700;2022-11-13T07:42:56;6.90;99.90
25512;DHT22;13414;44.534;18.700;2022-11-13T07:45:43;6.90;99.90
25512;DHT22;13414;44.534;18.700;2022-11-13T07:48:28;7.00;99.90
25512;DHT22;13414;44.534;18.700;2022-11-13T07:51:14;7.10;99.90
25512;DHT22;13414;44.534;18.700;2022-11-13T07:53:59;7.20;99.90
25512;DHT22;13414;44.534;18.700;2022-11-13T07:56:47;7.30;99.90
25512;DHT22;13414;44.534;18.700;2022-11-13T07:59:32;7.40;99.90
25512;DHT22;13414;44.534;18.700;2022-11-13T08:02:18;7.40;99.90
25512;DHT22;13414;44.534;18.700;2022-11-13T08:05:04;7.40;99.90
25512;DHT22;13414;44.534;18.700;2022-11-13T08:07:50;7.40;99.90
25512;DHT22;13414;44.534;18.700;2022-11-13T08:10:36;7.40;99.90
25512;DHT22;13414;44.534;18.700;2022-11-13T08:13:23;7.50;99.90
25512;DHT22;13414;44.534;18.700;2022-11-13T08:16:09;7.70;99.90
25512;DHT22;13414;44.534;18.700;2022-11-13T08:18:54;7.80;99.90
25512;DHT22;13414;44.534;18.700;2022-11-13T08:21:40;8.00;99.90
25512;DHT22;13414;44.534;18.700;2022-11-13T08:24:25;8.20;99.90
25512;DHT22;13414;44.534;18.700;2022-11-13T08:27:11;8.30;99.90
25512;DHT22;13414;44.534;18.700;2022-11-13T08:29:58;8.30;99.90
25512;DHT22;13414;44.534;18.700;2022-11-13T08:32:44;8.40;99.90
25512;DHT22;13414;44.534;18.700;2022-11-13T08:35:29;8.30;99.90
25512;DHT22;13414;44.534;18.700;2022-11-13T08:38:15;8.40;99.90
25512;DHT22;13414;44.534;18.700;2022-11-13T08:41:02;8.40;99.90
25512;DHT22;13414;44.534;18.700;2022-11-13T08:43:48;8.20;99.90
25512;DHT22;13414;44.534;18.700;2022-11-13T08:46:35;8.00;99.90
25512;DHT22;13414;44.534;18.700;2022-11-13T08:49:21;8.10;99.90
25512;DHT22;13414;44.534;18.700;2022-11-13T08:52:06;8.20;99.90
25512;DHT22;13414;44.534;18.700;2022-11-13T08:54:52;8.40;99.90
25512;DHT22;13414;44.534;18.700;2022-11-13T08:57:38;8.50;99.90
25512;DHT22;13414;44.534;18.700;2022-11-13T09:00:24;8.70;99.90
25512;DHT22;13414;44.534;18.700;2022-11-13T09:03:11;8.80;99.90
25512;DHT22;13414;44.534;18.700;2022-11-13T09:05:56;8.80;99.90
25512;DHT22;13414;44.534;18.700;2022-11-13T09:08:42;9.00;99.90
25512;DHT22;13414;44.534;18.700;2022-11-13T09:11:27;9.10;99.90
25512;DHT22;13414;44.534;18.700;2022-11-13T09:14:13;9.20;99.90
25512;DHT22;13414;44.534;18.700;2022-11-13T09:16:58;9.20;99.90
25512;DHT22;13414;44.534;18.700;2022-11-13T09:19:46;9.20;99.90
25512;DHT22;13414;44.534;18.700;2022-11-13T09:22:32;9.10;99.90
25512;DHT22;13414;44.534;18.700;2022-11-13T09:25:18;9.10;99.90
25512;DHT22;13414;44.534;18.700;2022-11-13T09:28:04;9.30;99.90
25512;DHT22;13414;44.534;18.700;2022-11-13T09:30:50;9.40;99.90
25512;DHT22;13414;44.534;18.700;2022-11-13T09:33:36;9.60;99.90
25512;DHT22;13414;44.534;18.700;2022-11-13T09:36:23;9.70;99.90
25512;DHT22;13414;44.534;18.700;2022-11-13T09:39:09;9.70;99.90
25512;DHT22;13414;44.534;18.700;2022-11-13T09:41:56;9.70;99.90
25512;DHT22;13414;44.534;18.700;2022-11-13T09:44:43;9.80;99.90
25512;DHT22;13414;44.534;18.700;2022-11-13T09:47:30;9.90;99.90
25512;DHT22;13414;44.534;18.700;2022-11-13T09:50:18;9.90;99.90
25512;DHT22;13414;44.534;18.700;2022-11-13T09:53:07;10.10;99.90
25512;DHT22;13414;44.534;18.700;2022-11-13T09:55:55;10.20;99.90
25512;DHT22;13414;44.534;18.700;2022-11-13T09:58:44;10.30;99.90
25512;DHT22;13414;44.534;18.700;2022-11-13T10:01:39;10.40;99.90
25512;DHT22;13414;44.534;18.700;2022-11-13T10:04:28;10.50;99.90
25512;DHT22;13414;44.534;18.700;2022-11-13T10:07:30;10.60;99.90
25512;DHT22;13414;44.534;18.700;2022-11-13T10:10:24;10.70;99.90
25512;DHT22;13414;44.534;18.700;2022-11-13T10:13:13;10.80;99.90
25512;DHT22;13414;44.534;18.700;2022-11-13T10:16:03;10.80;99.90
25512;DHT22;13414;44.534;18.700;2022-11-13T10:18:50;10.90;99.90
25512;DHT22;13414;44.534;18.700;2022-11-13T10:21:41;11.00;99.90
25512;DHT22;13414;44.534;18.700;2022-11-13T10:24:40;11.10;99.90
25512;DHT22;13414;44.534;18.700;2022-11-13T10:27:29;11.20;99.90
25512;DHT22;13414;44.534;18.700;2022-11-13T10:30:16;11.30;99.90
25512;DHT22;13414;44.534;18.700;2022-11-13T10:33:02;11.40;99.90
25512;DHT22;13414;44.534;18.700;2022-11-13T10:35:51;11.60;99.90
25512;DHT22;13414;44.534;18.700;2022-11-13T10:38:38;11.70;99.90
25512;DHT22;13414;44.534;18.700;2022-11-13T10:41:26;11.70;99.90
25512;DHT22;13414;44.534;18.700;2022-11-13T10:44:24;11.80;99.90
25512;DHT22;13414;44.534;18.700;2022-11-13T10:47:13;11.90;99.90
25512;DHT22;13414;44.534;18.700;2022-11-13T10:50:07;12.00;99.90
25512;DHT22;13414;44.534;18.700;2022-11-13T10:52:55;12.30;99.90
25512;DHT22;13414;44.534;18.700;2022-11-13T10:55:40;12.40;99.90
25512;DHT22;13414;44.534;18.700;2022-11-13T10:58:26;12.60;99.90
25512;DHT22;13414;44.534;18.700;2022-11-13T11:01:14;12.70;95.20
25512;DHT22;13414;44.534;18.700;2022-11-13T11:04:02;12.90;1.00
25512;DHT22;13414;44.534;18.700;2022-11-13T11:06:47;13.00;99.90
25512;DHT22;13414;44.534;18.700;2022-11-13T11:09:37;13.00;1.00
25512;DHT22;13414;44.534;18.700;2022-11-13T11:12:23;13.10;52.20
25512;DHT22;13414;44.534;18.700;2022-11-13T11:15:14;13.20;99.90
25512;DHT22;13414;44.534;18.700;2022-11-13T11:18:04;13.20;1.00
25512;DHT22;13414;44.534;18.700;2022-11-13T11:20:51;13.30;99.90
25512;DHT22;13414;44.534;18.700;2022-11-13T11:23:38;13.30;1.00
25512;DHT22;13414;44.534;18.700;2022-11-13T11:26:29;13.30;1.00
25512;DHT22;13414;44.534;18.700;2022-11-13T11:29:16;13.40;99.90
25512;DHT22;13414;44.534;18.700;2022-11-13T11:32:05;13.50;14.00
25512;DHT22;13414;44.534;18.700;2022-11-13T11:34:54;13.60;1.00
25512;DHT22;13414;44.534;18.700;2022-11-13T11:37:45;13.80;82.30
25512;DHT22;13414;44.534;18.700;2022-11-13T11:40:34;13.80;1.00
25512;DHT22;13414;44.534;18.700;2022-11-13T11:43:23;13.90;99.90
25512;DHT22;13414;44.534;18.700;2022-11-13T11:46:12;13.90;1.00
25512;DHT22;13414;44.534;18.700;2022-11-13T11:48:58;14.00;1.00
25512;DHT22;13414;44.534;18.700;2022-11-13T11:51:48;14.00;99.90
25512;DHT22;13414;44.534;18.700;2022-11-13T11:54:39;14.10;1.00
25512;DHT22;13414;44.534;18.700;2022-11-13T11:57:29;14.10;1.00
25512;DHT22;13414;44.534;18.700;2022-11-13T12:00:19;14.10;1.00
25512;DHT22;13414;44.534;18.700;2022-11-13T12:03:19;14.30;1.00
25512;DHT22;13414;44.534;18.700;2022-11-13T12:06:11;14.30;1.00
25512;DHT22;13414;44.534;18.700;2022-11-13T12:09:02;14.30;99.90
25512;DHT22;13414;44.534;18.700;2022-11-13T12:11:51;14.40;99.90
25512;DHT22;13414;44.534;18.700;2022-11-13T12:14:42;14.40;1.00
25512;DHT22;13414;44.534;18.700;2022-11-13T12:17:38;14.50;1.00
25512;DHT22;13414;44.534;18.700;2022-11-13T12:20:29;14.50;1.00
25512;DHT22;13414;44.534;18.700;2022-11-13T12:23:24;14.60;1.00
25512;DHT22;13414;44.534;18.700;2022-11-13T12:26:13;14.60;1.00
25512;DHT22;13414;44.534;18.700;2022-11-13T12:29:03;14.60;1.00
25512;DHT22;13414;44.534;18.700;2022-11-13T12:31:52;14.80;1.00
25512;DHT22;13414;44.534;18.700;2022-11-13T12:34:40;14.80;1.00
25512;DHT22;13414;44.534;18.700;2022-11-13T12:37:30;14.80;1.00
25512;DHT22;13414;44.534;18.700;2022-11-13T12:40:19;14.80;1.00
25512;DHT22;13414;44.534;18.700;2022-11-13T12:43:19;14.80;1.00
25512;DHT22;13414;44.534;18.700;2022-11-13T12:46:10;14.80;1.00
25512;DHT22;13414;44.534;18.700;2022-11-13T12:48:56;14.80;1.00
25512;DHT22;13414;44.534;18.700;2022-11-13T12:51:51;14.90;1.00
25512;DHT22;13414;44.534;18.700;2022-11-13T12:54:37;14.90;1.00
25512;DHT22;13414;44.534;18.700;2022-11-13T12:57:23;15.10;1.00
25512;DHT22;13414;44.534;18.700;2022-11-13T13:00:19;15.20;1.00
25512;DHT22;13414;44.534;18.700;2022-11-13T13:03:16;15.30;99.90
25512;DHT22;13414;44.534;18.700;2022-11-13T13:06:11;15.50;99.90
25512;DHT22;13414;44.534;18.700;2022-11-13T13:12:05;15.90;99.90
25512;DHT22;13414;44.534;18.700;2022-11-13T13:15:00;16.10;99.90
25512;DHT22;13414;44.534;18.700;2022-11-13T13:17:50;16.00;99.90
25512;DHT22;13414;44.534;18.700;2022-11-13T13:20:56;15.90;99.90
25512;DHT22;13414;44.534;18.700;2022-11-13T13:23:43;16.00;99.90
25512;DHT22;13414;44.534;18.700;2022-11-13T13:26:29;15.90;99.90
25512;DHT22;13414;44.534;18.700;2022-11-13T13:29:15;15.90;99.90
25512;DHT22;13414;44.534;18.700;2022-11-13T13:32:03;15.70;99.90
25512;DHT22;13414;44.534;18.700;2022-11-13T13:34:54;15.60;99.90
25512;DHT22;13414;44.534;18.700;2022-11-13T13:37:42;15.40;99.90
25512;DHT22;13414;44.534;18.700;2022-11-13T13:40:36;15.30;99.90
25512;DHT22;13414;44.534;18.700;2022-11-13T13:43:28;15.00;99.90
25512;DHT22;13414;44.534;18.700;2022-11-13T13:46:18;14.90;1.00
25512;DHT22;13414;44.534;18.700;2022-11-13T13:49:05;14.80;1.00
25512;DHT22;13414;44.534;18.700;2022-11-13T13:51:54;14.80;1.00
25512;DHT22;13414;44.534;18.700;2022-11-13T13:54:41;14.70;1.00
25512;DHT22;13414;44.534;18.700;2022-11-13T13:57:27;14.60;99.90
25512;DHT22;13414;44.534;18.700;2022-11-13T14:00:14;14.60;99.90
25512;DHT22;13414;44.534;18.700;2022-11-13T14:03:01;14.50;1.00
25512;DHT22;13414;44.534;18.700;2022-11-13T14:05:46;14.40;89.10
25512;DHT22;13414;44.534;18.700;2022-11-13T14:08:34;14.30;99.90
25512;DHT22;13414;44.534;18.700;2022-11-13T14:11:20;14.20;1.00
25512;DHT22;13414;44.534;18.700;2022-11-13T14:14:14;14.10;1.00
25512;DHT22;13414;44.534;18.700;2022-11-13T14:17:01;14.10;1.00
25512;DHT22;13414;44.534;18.700;2022-11-13T14:19:50;14.10;52.80
25512;DHT22;13414;44.534;18.700;2022-11-13T14:22:37;14.00;99.90
25512;DHT22;13414;44.534;18.700;2022-11-13T14:25:26;14.00;99.90
25512;DHT22;13414;44.534;18.700;2022-11-13T14:28:13;14.00;1.00
25512;DHT22;13414;44.534;18.700;2022-11-13T14:31:00;13.90;1.00
25512;DHT22;13414;44.534;18.700;2022-11-13T14:33:47;13.80;1.00
25512;DHT22;13414;44.534;18.700;2022-11-13T14:36:33;13.90;1.00
25512;DHT22;13414;44.534;18.700;2022-11-13T14:39:25;13.90;1.00
25512;DHT22;13414;44.534;18.700;2022-11-13T14:42:16;13.90;99.90
25512;DHT22;13414;44.534;18.700;2022-11-13T14:45:13;13.70;1.00
25512;DHT22;13414;44.534;18.700;2022-11-13T14:48:00;13.60;99.90
25512;DHT22;13414;44.534;18.700;2022-11-13T14:50:49;13.60;1.00
25512;DHT22;13414;44.534;18.700;2022-11-13T14:53:36;13.50;1.00
25512;DHT22;13414;44.534;18.700;2022-11-13T14:56:29;13.50;99.90
25512;DHT22;13414;44.534;18.700;2022-11-13T14:59:24;13.40;99.90
25512;DHT22;13414;44.534;18.700;2022-11-13T15:02:10;13.40;99.90
25512;DHT22;13414;44.534;18.700;2022-11-13T15:04:56;13.40;99.90
25512;DHT22;13414;44.534;18.700;2022-11-13T15:07:41;13.40;99.90
25512;DHT22;13414;44.534;18.700;2022-11-13T15:10:29;13.30;1.00
25512;DHT22;13414;44.534;18.700;2022-11-13T15:13:15;13.30;99.90
25512;DHT22;13414;44.534;18.700;2022-11-13T15:16:03;13.40;99.90
25512;DHT22;13414;44.534;18.700;2022-11-13T15:18:49;13.40;99.90
25512;DHT22;13414;44.534;18.700;2022-11-13T15:21:36;13.30;99.90
25512;DHT22;13414;44.534;18.700;2022-11-13T15:24:22;13.30;1.00
25512;DHT22;13414;44.534;18.700;2022-11-13T15:27:08;13.20;1.00
25512;DHT22;13414;44.534;18.700;2022-11-13T15:29:57;13.30;99.90
25512;DHT22;13414;44.534;18.700;2022-11-13T15:32:44;13.20;99.90
25512;DHT22;13414;44.534;18.700;2022-11-13T15:35:30;13.20;99.90
25512;DHT22;13414;44.534;18.700;2022-11-13T15:38:15;13.20;99.90
25512;DHT22;13414;44.534;18.700;2022-11-13T15:41:01;13.20;99.90
25512;DHT22;13414;44.534;18.700;2022-11-13T15:43:52;13.30;99.90
25512;DHT22;13414;44.534;18.700;2022-11-13T15:46:38;13.30;99.90
25512;DHT22;13414;44.534;18.700;2022-11-13T15:49:25;13.30;99.90
25512;DHT22;13414;44.534;18.700;2022-11-13T15:52:11;13.30;99.90
25512;DHT22;13414;44.534;18.700;2022-11-13T15:54:56;13.30;99.90
25512;DHT22;13414;44.534;18.700;2022-11-13T15:57:42;13.20;99.90
25512;DHT22;13414;44.534;18.700;2022-11-13T16:00:28;13.20;99.90
25512;DHT22;13414;44.534;18.700;2022-11-13T16:03:14;13.10;99.90
25512;DHT22;13414;44.534;18.700;2022-11-13T16:06:03;13.00;99.90
25512;DHT22;13414;44.534;18.700;2022-11-13T16:08:49;12.90;99.90
25512;DHT22;13414;44.534;18.700;2022-11-13T16:11:35;12.80;99.90
25512;DHT22;13414;44.534;18.700;2022-11-13T16:14:21;12.70;99.90
25512;DHT22;13414;44.534;18.700;2022-11-13T16:17:09;12.70;99.90
25512;DHT22;13414;44.534;18.700;2022-11-13T16:19:56;12.70;99.90
25512;DHT22;13414;44.534;18.700;2022-11-13T16:22:43;12.60;99.90
25512;DHT22;13414;44.534;18.700;2022-11-13T16:25:30;12.50;99.90
25512;DHT22;13414;44.534;18.700;2022-11-13T16:28:16;12.50;99.90
25512;DHT22;13414;44.534;18.700;2022-11-13T16:31:01;12.50;99.90
25512;DHT22;13414;44.534;18.700;2022-11-13T16:33:47;12.50;99.90
25512;DHT22;13414;44.534;18.700;2022-11-13T16:36:33;12.40;99.90
25512;DHT22;13414;44.534;18.700;2022-11-13T16:39:20;12.40;99.90
25512;DHT22;13414;44.534;18.700;2022-11-13T16:42:06;12.30;99.90
25512;DHT22;13414;44.534;18.700;2022-11-13T16:44:51;12.20;99.90
25512;DHT22;13414;44.534;18.700;2022-11-13T16:47:37;12.20;99.90
25512;DHT22;13414;44.534;18.700;2022-11-13T16:50:23;12.10;99.90
25512;DHT22;13414;44.534;18.700;2022-11-13T16:53:09;12.10;99.90
25512;DHT22;13414;44.534;18.700;2022-11-13T16:55:56;12.00;99.90
25512;DHT22;13414;44.534;18.700;2022-11-13T16:58:42;12.00;99.90
25512;DHT22;13414;44.534;18.700;2022-11-13T17:01:27;11.90;99.90
25512;DHT22;13414;44.534;18.700;2022-11-13T17:04:13;11.90;99.90
25512;DHT22;13414;44.534;18.700;2022-11-13T17:06:58;11.90;99.90
25512;DHT22;13414;44.534;18.700;2022-11-13T17:09:44;11.90;99.90
25512;DHT22;13414;44.534;18.700;2022-11-13T17:12:32;11.90;99.90
25512;DHT22;13414;44.534;18.700;2022-11-13T17:15:17;11.80;99.90
25512;DHT22;13414;44.534;18.700;2022-11-13T17:18:04;11.70;99.90
25512;DHT22;13414;44.534;18.700;2022-11-13T17:20:49;11.60;99.90
25512;DHT22;13414;44.534;18.700;2022-11-13T17:23:35;11.60;99.90
25512;DHT22;13414;44.534;18.700;2022-11-13T17:26:21;11.60;99.90
25512;DHT22;13414;44.534;18.700;2022-11-13T17:29:08;11.60;99.90
25512;DHT22;13414;44.534;18.700;2022-11-13T17:31:54;11.60;99.90
25512;DHT22;13414;44.534;18.700;2022-11-13T17:34:39;11.50;99.90
25512;DHT22;13414;44.534;18.700;2022-11-13T17:37:26;11.50;99.90
25512;DHT22;13414;44.534;18.700;2022-11-13T17:40:11;11.50;99.90